Time;durP1;ratioP1;P1;durP2;ratioP2;P2;SDS_P1;SDS_P2;PMS_P1;PMS_P2;Temp;Humidity;BMP_temperature;BMP_pressure;BME280_temperature;BME280_humidity;BME280_pressure;Samples;Min_cycle;Max_cycle;Signal;HPM_P1;HPM_P2
2021/05/24 20:25:19;;;;;;;1.33;1.00;;;10.90;99.40;;;;;;5005900;28;20580;-69
2021/05/24 20:27:45;;;;;;;3.47;1.15;;;10.90;99.40;;;;;;5005510;28;20117;-67
2021/05/24 20:30:11;;;;;;;1.20;1.05;;;10.80;99.50;;;;;;5004452;28;20026;-67
2021/05/24 20:32:39;;;;;;;1.27;0.80;;;10.80;99.90;;;;;;5005581;28;20394;-69
2021/05/24 20:35:07;;;;;;;1.90;0.90;;;10.80;99.70;;;;;;5005310;28;20030;-67
2021/05/24 20:37:33;;;;;;;1.15;1.02;;;10.80;99.50;;;;;;5005510;28;20059;-68
2021/05/24 20:39:59;;;;;;;3.05;1.00;;;10.80;99.30;;;;;;5004259;28;20445;-68
2021/05/24 20:42:24;;;;;;;3.00;1.10;;;10.80;99.40;;;;;;5104147;28;20097;-70
2021/05/24 20:44:50;;;;;;;1.95;1.20;;;10.80;99.90;;;;;;5108678;28;20032;-70
2021/05/24 20:47:16;;;;;;;1.80;1.13;;;10.80;99.50;;;;;;5106822;28;20028;-69
2021/05/24 20:49:42;;;;;;;2.25;1.50;;;10.80;99.50;;;;;;5108116;28;20039;-70
2021/05/24 20:52:07;;;;;;;1.92;1.27;;;10.80;99.40;;;;;;5108797;28;20392;-70
2021/05/24 20:54:34;;;;;;;2.60;1.00;;;10.70;99.40;;;;;;5108254;28;20046;-69
2021/05/24 20:57:04;;;;;;;0.98;0.85;;;10.80;99.10;;;;;;5108379;28;20031;-70
2021/05/24 20:59:32;;;;;;;1.30;1.05;;;10.80;99.20;;;;;;5107489;28;20016;-70
2021/05/24 21:01:58;;;;;;;1.40;1.10;;;10.80;99.60;;;;;;5063152;28;20030;-70
2021/05/24 21:04:26;;;;;;;1.85;1.35;;;10.70;99.40;;;;;;5004617;28;20450;-70
2021/05/24 21:06:52;;;;;;;1.98;0.90;;;10.70;99.00;;;;;;4993553;28;20109;-68
2021/05/24 21:09:20;;;;;;;2.38;1.00;;;10.70;99.20;;;;;;4991609;28;20102;-68
2021/05/24 21:11:46;;;;;;;2.63;0.98;;;10.70;99.30;;;;;;4991819;28;20026;-68
2021/05/24 21:14:11;;;;;;;0.90;0.80;;;10.70;99.30;;;;;;4991452;28;20041;-68
2021/05/24 21:16:37;;;;;;;1.58;0.63;;;10.60;99.60;;;;;;4991662;28;20015;-68
2021/05/24 21:19:06;;;;;;;1.98;1.45;;;10.70;99.10;;;;;;4990766;28;20079;-68
2021/05/24 21:21:31;;;;;;;3.13;2.05;;;10.60;99.30;;;;;;4991839;28;20027;-68
2021/05/24 21:23:57;;;;;;;1.35;0.98;;;10.60;99.10;;;;;;4990451;28;20018;-68
2021/05/24 21:26:23;;;;;;;3.20;1.15;;;10.70;99.10;;;;;;4990481;28;20027;-68
2021/05/24 21:28:49;;;;;;;0.85;0.63;;;10.60;99.00;;;;;;4990144;28;20022;-68
2021/05/24 21:31:14;;;;;;;1.48;0.75;;;10.60;99.00;;;;;;4991739;28;20034;-69
2021/05/24 21:36:28;;;;;;;1.33;0.80;;;10.50;99.40;;;;;;4991149;28;20101;-69
2021/05/24 21:38:54;;;;;;;2.10;1.30;;;10.50;99.50;;;;;;4990426;28;20387;-68
2021/05/24 21:41:20;;;;;;;1.10;1.00;;;10.50;99.40;;;;;;4990935;28;20029;-69
2021/05/24 21:43:45;;;;;;;1.25;0.90;;;10.50;99.40;;;;;;4990877;28;20022;-69
2021/05/24 21:46:11;;;;;;;2.35;0.90;;;10.40;99.50;;;;;;4990837;28;20127;-68
2021/05/24 21:48:37;;;;;;;1.15;1.05;;;10.50;99.50;;;;;;4990790;28;20046;-69
2021/05/24 21:51:03;;;;;;;2.05;0.85;;;10.50;99.30;;;;;;4990888;28;20026;-69
2021/05/24 21:53:28;;;;;;;2.63;1.00;;;10.50;99.30;;;;;;4990203;28;20333;-69
2021/05/24 21:55:56;;;;;;;2.92;1.27;;;10.50;99.40;;;;;;4990150;28;20015;-68
2021/05/24 21:58:22;;;;;;;2.05;0.95;;;10.50;99.40;;;;;;4989800;28;20337;-68
2021/05/24 22:00:51;;;;;;;1.30;0.85;;;10.50;99.40;;;;;;4997569;28;20022;-69
2021/05/24 22:03:20;;;;;;;0.77;0.77;;;10.50;99.30;;;;;;4999970;28;20057;-68
2021/05/24 22:05:47;;;;;;;1.98;0.98;;;10.50;99.20;;;;;;4990751;28;20105;-68
2021/05/24 22:08:13;;;;;;;3.00;1.45;;;10.60;99.20;;;;;;4990666;28;20035;-68
2021/05/24 22:10:39;;;;;;;2.15;0.95;;;10.70;99.20;;;;;;4991001;28;20034;-68
2021/05/24 22:13:10;;;;;;;1.67;0.98;;;10.70;99.20;;;;;;4990530;28;20022;-68
2021/05/24 22:15:36;;;;;;;1.35;0.85;;;10.60;99.10;;;;;;4989578;28;20193;-68
2021/05/24 22:18:05;;;;;;;1.50;1.23;;;10.60;99.20;;;;;;4989792;28;20062;-68
2021/05/24 22:20:34;;;;;;;1.95;1.10;;;10.60;99.20;;;;;;4996644;28;20473;-68
2021/05/24 22:23:00;;;;;;;1.63;0.95;;;10.60;99.40;;;;;;4990517;28;20026;-68
2021/05/24 22:25:29;;;;;;;2.10;1.55;;;10.60;99.20;;;;;;4990525;28;20026;-68
2021/05/24 22:27:56;;;;;;;3.13;2.10;;;10.60;99.20;;;;;;4989408;28;20022;-69
2021/05/24 22:30:25;;;;;;;2.75;1.23;;;10.60;99.30;;;;;;4990313;28;20042;-68
2021/05/24 22:32:53;;;;;;;3.65;2.25;;;10.60;99.20;;;;;;4990389;28;20113;-68
2021/05/24 22:35:18;;;;;;;4.10;1.63;;;10.60;99.20;;;;;;4990164;28;20083;-68
2021/05/24 22:37:44;;;;;;;1.88;1.60;;;10.60;99.30;;;;;;4990340;28;20039;-67
2021/05/24 22:40:11;;;;;;;1.95;1.33;;;10.60;99.30;;;;;;4972992;28;20105;-68
2021/05/24 22:42:38;;;;;;;3.90;1.58;;;10.60;99.20;;;;;;4975955;28;20014;-68
2021/05/24 22:45:06;;;;;;;2.47;1.70;;;10.60;99.10;;;;;;4981720;28;20087;-67
2021/05/24 22:47:32;;;;;;;4.40;1.23;;;10.60;99.00;;;;;;4983182;28;20072;-68
2021/05/24 22:50:08;;;;;;;5.07;1.00;;;10.60;98.80;;;;;;5006018;28;20048;-68
2021/05/24 22:52:47;;;;;;;3.78;1.23;;;10.70;98.80;;;;;;5028992;28;20020;-68
2021/05/24 22:55:19;;;;;;;1.55;1.10;;;10.70;98.70;;;;;;5041130;28;20062;-67
2021/05/24 22:57:47;;;;;;;1.08;0.95;;;10.70;98.60;;;;;;4990158;28;20022;-69
2021/05/24 23:00:15;;;;;;;1.90;1.42;;;10.70;98.50;;;;;;4989246;28;20527;-68
2021/05/24 23:02:41;;;;;;;2.60;1.27;;;10.60;98.50;;;;;;4990147;28;20050;-67
2021/05/24 23:05:08;;;;;;;3.78;1.25;;;10.60;98.50;;;;;;4990194;28;20460;-69
2021/05/24 23:07:37;;;;;;;4.68;1.20;;;10.60;98.60;;;;;;4989989;28;20026;-69
2021/05/24 23:10:09;;;;;;;1.50;0.90;;;10.60;98.60;;;;;;4990294;28;20409;-68
2021/05/24 23:12:37;;;;;;;2.85;1.20;;;10.70;98.20;;;;;;4990005;28;20351;-68
2021/05/24 23:15:03;;;;;;;1.52;1.00;;;10.70;98.20;;;;;;4989791;28;20041;-68
2021/05/24 23:17:33;;;;;;;1.58;1.40;;;10.70;98.30;;;;;;4989962;28;20095;-68
2021/05/24 23:19:59;;;;;;;1.27;0.95;;;10.70;98.20;;;;;;4989952;28;20021;-68
2021/05/24 23:22:25;;;;;;;4.03;1.17;;;10.60;98.50;;;;;;4989924;28;20038;-68
2021/05/24 23:24:52;;;;;;;1.17;0.95;;;10.60;98.40;;;;;;4989756;28;20118;-68
2021/05/24 23:27:18;;;;;;;1.00;0.90;;;10.50;98.20;;;;;;4989774;28;20105;-68
2021/05/24 23:29:44;;;;;;;1.20;0.82;;;10.50;98.30;;;;;;4989298;28;20101;-68
2021/05/24 23:32:10;;;;;;;1.17;0.82;;;10.40;98.50;;;;;;4989579;28;20080;-68
2021/05/24 23:34:38;;;;;;;0.75;0.70;;;10.30;99.20;;;;;;4989018;28;20041;-68
2021/05/24 23:37:04;;;;;;;1.75;1.30;;;10.20;98.80;;;;;;4989514;28;20049;-68
2021/05/24 23:39:29;;;;;;;1.13;0.98;;;10.10;99.00;;;;;;4989832;28;20030;-68
2021/05/24 23:41:55;;;;;;;6.50;1.35;;;10.10;99.40;;;;;;4989378;28;20031;-68
2021/05/24 23:44:20;;;;;;;2.08;1.00;;;10.10;99.30;;;;;;4989331;28;20472;-68
2021/05/24 23:46:49;;;;;;;1.65;1.10;;;10.00;99.40;;;;;;4989345;28;20022;-68
2021/05/24 23:49:14;;;;;;;2.47;0.95;;;10.00;99.50;;;;;;4989319;28;20030;-68
2021/05/24 23:51:40;;;;;;;1.58;0.90;;;10.00;99.50;;;;;;4989292;28;20033;-70
2021/05/24 23:54:06;;;;;;;2.20;0.93;;;10.00;99.60;;;;;;4989116;28;20047;-70
2021/05/24 23:56:31;;;;;;;4.20;1.45;;;10.00;99.60;;;;;;4989380;28;20033;-68
2021/05/24 23:58:57;;;;;;;2.13;0.90;;;10.10;99.50;;;;;;4995542;28;20030;-68
